Time;durP1;ratioP1;P1;durP2;ratioP2;P2;SDS_P1;SDS_P2;PMS_P1;PMS_P2;Temp;Humidity;BMP_temperature;BMP_pressure;BME280_temperature;BME280_humidity;BME280_pressure;Samples;Min_cycle;Max_cycle;Signal;HPM_P1;HPM_P2
2022/11/01 00:02:08;;;;;;;49.05;21.20;;;24.50;48.00;;;;;;6147515;28;83503;-60
2022/11/01 00:05:08;;;;;;;40.85;19.70;;;24.40;48.00;;;;;;6147038;28;84456;-59
2022/11/01 00:08:09;;;;;;;39.22;18.55;;;24.40;48.00;;;;;;6145197;28;84254;-68
2022/11/01 00:11:09;;;;;;;37.95;20.05;;;24.40;48.00;;;;;;6151771;28;82822;-67
2022/11/01 00:14:10;;;;;;;48.58;19.45;;;24.40;48.00;;;;;;6150721;28;85358;-68
2022/11/01 00:17:10;;;;;;;47.70;20.70;;;24.40;48.00;;;;;;6171864;28;86067;-67
2022/11/01 00:20:11;;;;;;;45.28;20.55;;;24.40;48.00;;;;;;6175043;28;83971;-68
2022/11/01 00:23:11;;;;;;;41.90;18.73;;;24.40;48.00;;;;;;6171463;28;83656;-67
2022/11/01 00:26:12;;;;;;;40.28;19.75;;;24.30;47.90;;;;;;6174643;28;83093;-64
2022/11/01 00:29:12;;;;;;;40.50;20.05;;;24.30;48.00;;;;;;6171891;28;83290;-64
2022/11/01 00:32:13;;;;;;;41.63;19.38;;;24.30;47.90;;;;;;6173320;28;83637;-64
2022/11/01 00:35:13;;;;;;;45.38;19.95;;;24.30;47.90;;;;;;6172424;28;83189;-65
2022/11/01 00:38:14;;;;;;;33.83;18.42;;;24.30;47.80;;;;;;6177920;28;83344;-64
2022/11/01 00:41:14;;;;;;;33.90;18.35;;;24.30;47.80;;;;;;6193291;28;82988;-63
2022/11/01 00:44:15;;;;;;;37.85;17.30;;;24.30;47.70;;;;;;6169630;28;83374;-59
2022/11/01 00:47:16;;;;;;;36.05;18.58;;;24.30;47.80;;;;;;6175469;28;84542;-59
2022/11/01 00:50:16;;;;;;;35.40;18.45;;;24.30;47.80;;;;;;6178777;28;90010;-58
2022/11/01 00:53:17;;;;;;;36.60;18.58;;;24.30;47.80;;;;;;6185520;28;83042;-57
2022/11/01 00:56:17;;;;;;;37.20;18.52;;;24.30;47.80;;;;;;6182291;28;83032;-59
2022/11/01 00:59:18;;;;;;;29.92;17.83;;;24.30;47.70;;;;;;6194010;28;83289;-59
2022/11/01 01:02:18;;;;;;;32.25;18.15;;;24.20;47.70;;;;;;6196362;28;83939;-58
2022/11/01 01:05:19;;;;;;;35.33;18.75;;;24.20;48.40;;;;;;6193299;28;83852;-60
2022/11/01 01:08:19;;;;;;;33.72;17.15;;;24.20;47.70;;;;;;6197025;28;82975;-60
2022/11/01 01:11:20;;;;;;;30.77;17.55;;;24.20;47.70;;;;;;6191196;28;83852;-60
2022/11/01 01:14:20;;;;;;;31.05;18.15;;;24.20;47.70;;;;;;6197000;28;83779;-59
2022/11/01 01:17:21;;;;;;;30.48;18.58;;;24.20;47.70;;;;;;6199900;28;83245;-58
2022/11/01 01:20:21;;;;;;;29.05;17.55;;;24.20;47.80;;;;;;6194839;28;83078;-59
2022/11/01 01:23:22;;;;;;;25.95;16.63;;;24.10;47.70;;;;;;6192949;28;83276;-59
2022/11/01 01:26:22;;;;;;;26.98;16.63;;;24.10;47.70;;;;;;6194897;28;83132;-59
2022/11/01 01:29:23;;;;;;;25.90;17.25;;;24.10;47.70;;;;;;6197357;28;84090;-60
2022/11/01 01:32:24;;;;;;;27.65;17.17;;;24.10;47.80;;;;;;6194620;28;83150;-59
2022/11/01 01:35:24;;;;;;;28.52;16.15;;;24.10;47.80;;;;;;6197443;28;85864;-59
2022/11/01 01:38:25;;;;;;;22.30;15.35;;;24.10;47.80;;;;;;6194591;28;82984;-58
2022/11/01 01:44:44;;;;;;;21.80;14.75;;;24.10;47.90;;;;;;6196767;28;83516;-57
2022/11/01 01:47:45;;;;;;;20.85;14.43;;;24.10;47.90;;;;;;6184961;28;83424;-57
2022/11/01 01:50:45;;;;;;;20.75;14.88;;;24.10;48.00;;;;;;6170682;28;82794;-59
2022/11/01 01:53:46;;;;;;;21.02;14.05;;;24.10;48.00;;;;;;6184775;28;83474;-56
2022/11/01 01:56:46;;;;;;;23.48;15.73;;;24.00;48.00;;;;;;6186032;28;82913;-56
2022/11/01 01:59:47;;;;;;;21.65;14.57;;;24.00;48.10;;;;;;6175038;28;83002;-57
2022/11/01 02:02:47;;;;;;;21.50;14.50;;;24.00;48.10;;;;;;6161589;28;86579;-55
2022/11/01 02:05:48;;;;;;;19.85;14.38;;;24.00;48.10;;;;;;6182711;28;86436;-57
2022/11/01 02:08:48;;;;;;;19.52;14.23;;;24.00;48.10;;;;;;6171240;28;83485;-58
2022/11/01 02:11:49;;;;;;;18.98;14.43;;;24.00;48.10;;;;;;6185294;28;83164;-58
2022/11/01 02:14:49;;;;;;;17.85;13.48;;;24.00;48.30;;;;;;6181898;28;83050;-57
2022/11/01 02:17:50;;;;;;;17.75;12.93;;;24.10;48.30;;;;;;6169859;28;83467;-66
2022/11/01 02:20:50;;;;;;;17.58;12.50;;;24.10;48.30;;;;;;6163579;28;83601;-66
2022/11/01 02:23:51;;;;;;;16.33;12.50;;;24.10;48.40;;;;;;6162640;28;85602;-68
2022/11/01 02:26:51;;;;;;;16.67;12.73;;;24.10;48.30;;;;;;6166858;28;83196;-67
2022/11/01 02:29:52;;;;;;;15.52;11.55;;;24.10;48.40;;;;;;6167610;28;84359;-67
2022/11/01 02:32:52;;;;;;;16.35;11.93;;;24.00;48.50;;;;;;6164543;28;82819;-68
2022/11/01 02:35:53;;;;;;;17.65;12.00;;;24.00;48.50;;;;;;6170648;28;83235;-70
2022/11/01 02:38:53;;;;;;;15.32;12.30;;;24.10;48.30;;;;;;6171899;28;83391;-70
2022/11/01 02:41:54;;;;;;;16.13;11.55;;;24.10;48.30;;;;;;6168698;28;83396;-69
2022/11/01 02:44:54;;;;;;;14.40;11.30;;;24.00;48.20;;;;;;6169743;28;83369;-69
2022/11/01 02:47:55;;;;;;;15.98;12.30;;;24.00;48.40;;;;;;6171484;28;84428;-70
2022/11/01 02:50:55;;;;;;;17.60;11.25;;;24.00;48.30;;;;;;6171334;28;84545;-69
2022/11/01 02:53:56;;;;;;;15.32;11.48;;;23.90;48.30;;;;;;6170559;28;86621;-57
2022/11/01 02:56:56;;;;;;;15.30;11.15;;;23.90;48.30;;;;;;6169618;28;83633;-57
2022/11/01 03:00:03;;;;;;;16.73;12.27;;;23.90;48.40;;;;;;6168537;28;86451;-56
2022/11/01 03:03:04;;;;;;;16.92;11.55;;;23.90;48.40;;;;;;6161881;28;84190;-56
2022/11/01 03:06:06;;;;;;;16.38;12.00;;;23.90;48.30;;;;;;6182116;28;83790;-58
2022/11/01 03:09:06;;;;;;;15.18;10.88;;;23.90;48.20;;;;;;6180473;28;87114;-58
2022/11/01 03:12:07;;;;;;;15.20;11.73;;;23.90;48.20;;;;;;6171191;28;83887;-64
2022/11/01 03:15:07;;;;;;;17.20;12.13;;;23.90;48.80;;;;;;6169150;28;83243;-63
2022/11/01 03:18:08;;;;;;;16.13;11.07;;;23.90;48.20;;;;;;6169969;28;91820;-64
2022/11/01 03:21:14;;;;;;;16.70;11.82;;;23.90;48.30;;;;;;6168887;28;83092;-65
2022/11/01 03:24:14;;;;;;;17.33;12.00;;;23.80;48.30;;;;;;6168338;28;83553;-63
2022/11/01 03:27:15;;;;;;;17.05;11.52;;;23.80;48.20;;;;;;6171073;28;86367;-63
2022/11/01 03:30:16;;;;;;;15.68;11.48;;;23.80;48.20;;;;;;6167802;28;85547;-67
2022/11/01 03:33:16;;;;;;;15.50;11.73;;;23.80;48.30;;;;;;6171944;28;82674;-66
2022/11/01 03:36:17;;;;;;;15.82;10.98;;;23.80;48.40;;;;;;6172427;28;83761;-67
2022/11/01 03:39:17;;;;;;;15.85;11.30;;;23.80;48.40;;;;;;6168902;28;83022;-67
2022/11/01 03:42:18;;;;;;;16.20;11.43;;;23.80;48.40;;;;;;6171307;28;84122;-66
2022/11/01 03:45:18;;;;;;;16.38;11.73;;;23.80;48.30;;;;;;6173767;28;83580;-67
2022/11/01 03:48:19;;;;;;;15.70;10.88;;;23.80;48.40;;;;;;6174544;28;87528;-58
2022/11/01 03:51:19;;;;;;;19.20;10.23;;;23.80;48.30;;;;;;6170632;28;85880;-57
2022/11/01 03:54:20;;;;;;;12.20;10.13;;;23.80;48.30;;;;;;6172720;28;88904;-57
2022/11/01 03:57:20;;;;;;;14.40;10.85;;;23.80;48.40;;;;;;6173977;28;83170;-54
2022/11/01 04:00:21;;;;;;;17.05;10.38;;;23.90;48.30;;;;;;6172508;28;90434;-58
2022/11/01 04:03:21;;;;;;;15.02;10.05;;;23.80;48.30;;;;;;6156459;28;86411;-56
2022/11/01 04:06:22;;;;;;;15.75;9.85;;;23.80;48.40;;;;;;6175950;28;85192;-67
2022/11/01 04:09:22;;;;;;;14.02;10.57;;;23.80;48.30;;;;;;6179672;28;83178;-68
2022/11/01 04:12:23;;;;;;;13.88;10.73;;;23.80;49.10;;;;;;6184403;28;83132;-68
2022/11/01 04:20:31;;;;;;;14.23;9.75;;;23.80;48.40;;;;;;6166440;28;89643;-69
2022/11/01 04:22:12;;;;;;;15.32;11.38;;;23.90;48.50;;;;;;6178042;28;84286;-71
2022/11/01 04:25:13;;;;;;;14.98;10.68;;;23.90;48.50;;;;;;6171394;28;83303;-70
2022/11/01 04:28:13;;;;;;;15.77;12.15;;;23.90;48.50;;;;;;6173806;28;83378;-72
2022/11/01 04:31:14;;;;;;;16.52;11.80;;;23.90;48.40;;;;;;6172979;28;83062;-71
2022/11/01 04:34:40;;;;;;;19.00;13.45;;;23.90;48.40;;;;;;6174953;28;83720;-68
2022/11/01 04:37:35;;;;;;;17.58;13.50;;;24.00;48.20;;;;;;6196493;28;87944;-68
2022/11/01 04:40:35;;;;;;;24.20;15.15;;;24.00;48.20;;;;;;6197570;28;83729;-70
2022/11/01 04:43:36;;;;;;;25.00;14.85;;;24.00;48.10;;;;;;6196995;28;83593;-63
2022/11/01 04:46:36;;;;;;;20.52;15.25;;;24.10;48.00;;;;;;6153637;28;82976;-67
2022/11/01 04:49:37;;;;;;;22.27;16.17;;;24.10;47.90;;;;;;6208380;28;85380;-68
2022/11/01 04:52:37;;;;;;;23.25;15.30;;;24.10;47.80;;;;;;6170054;28;83936;-67
2022/11/01 04:55:38;;;;;;;22.45;15.18;;;24.10;47.70;;;;;;6174626;28;83488;-68
2022/11/01 04:58:38;;;;;;;21.92;15.63;;;24.20;47.60;;;;;;6162391;28;85898;-69
2022/11/01 05:01:39;;;;;;;23.00;16.77;;;24.10;47.60;;;;;;6152664;28;84265;-54
2022/11/01 05:04:39;;;;;;;21.67;15.82;;;24.20;47.60;;;;;;6168080;28;83205;-55
2022/11/01 05:07:40;;;;;;;23.60;16.65;;;24.10;47.50;;;;;;6191265;28;83977;-54
2022/11/01 05:10:41;;;;;;;20.65;15.40;;;24.20;47.40;;;;;;6194516;28;84060;-55
2022/11/01 05:13:41;;;;;;;21.40;14.27;;;24.30;47.70;;;;;;6173139;28;85175;-55
2022/11/01 05:16:42;;;;;;;17.98;12.50;;;24.30;47.80;;;;;;6169287;28;83135;-56
2022/11/01 05:19:42;;;;;;;20.95;12.95;;;24.30;48.00;;;;;;6171148;28;83576;-59
2022/11/01 05:22:43;;;;;;;17.48;12.63;;;24.30;48.10;;;;;;6185830;28;87600;-59
2022/11/01 05:25:43;;;;;;;17.50;12.85;;;24.40;48.20;;;;;;6172938;28;83483;-58
2022/11/01 05:28:44;;;;;;;17.77;11.73;;;24.50;48.30;;;;;;6195086;28;83424;-59
2022/11/01 05:31:44;;;;;;;19.98;12.13;;;24.50;48.40;;;;;;6170775;28;85734;-58
2022/11/01 05:34:45;;;;;;;23.23;13.82;;;24.50;48.60;;;;;;6157818;28;83198;-57
2022/11/01 05:37:46;;;;;;;20.60;14.32;;;24.50;48.60;;;;;;6173851;28;86194;-58
2022/11/01 05:40:46;;;;;;;32.88;13.80;;;24.60;48.80;;;;;;6177327;28;83013;-59
2022/11/01 05:43:47;;;;;;;18.30;12.63;;;24.50;48.70;;;;;;6178542;28;83048;-59
2022/11/01 05:46:47;;;;;;;19.23;13.10;;;24.50;48.50;;;;;;6175815;28;87996;-59
2022/11/01 05:49:48;;;;;;;27.65;15.18;;;24.60;48.60;;;;;;6182119;28;83049;-60
2022/11/01 05:52:48;;;;;;;22.77;14.20;;;24.60;48.60;;;;;;6172328;28;83201;-61
2022/11/01 05:55:49;;;;;;;24.65;13.93;;;24.60;48.60;;;;;;6163373;28;83998;-59
2022/11/01 05:58:49;;;;;;;18.73;12.68;;;24.60;48.60;;;;;;6147178;28;84847;-61
2022/11/01 06:01:50;;;;;;;22.85;14.15;;;24.60;48.60;;;;;;6164888;28;83617;-62
2022/11/01 06:04:50;;;;;;;25.15;15.10;;;24.60;48.60;;;;;;6153738;28;83594;-61
2022/11/01 06:07:51;;;;;;;22.63;14.82;;;24.60;48.60;;;;;;6156083;28;85027;-60
2022/11/01 06:10:51;;;;;;;22.30;14.00;;;24.70;48.70;;;;;;6154838;28;83090;-62
2022/11/01 06:13:52;;;;;;;23.80;14.13;;;24.70;48.80;;;;;;6164637;28;87027;-60
2022/11/01 06:16:53;;;;;;;25.10;14.80;;;24.70;48.70;;;;;;6168597;28;82975;-61
2022/11/01 06:19:53;;;;;;;21.38;13.85;;;24.70;48.80;;;;;;6178878;28;84522;-61
2022/11/01 06:22:54;;;;;;;22.63;13.90;;;24.70;49.10;;;;;;6159917;28;88329;-61
2022/11/01 06:25:54;;;;;;;21.77;13.85;;;24.70;49.10;;;;;;6186270;28;82956;-61
2022/11/01 06:28:55;;;;;;;18.88;12.85;;;24.70;49.00;;;;;;6164947;28;83478;-59
2022/11/01 06:31:55;;;;;;;20.00;11.98;;;24.70;49.50;;;;;;6146882;28;84753;-54
2022/11/01 06:34:56;;;;;;;19.40;12.43;;;24.70;48.70;;;;;;6169376;28;84315;-53
2022/11/01 06:37:56;;;;;;;19.13;12.35;;;24.70;48.60;;;;;;6185949;28;83411;-54
2022/11/01 06:40:57;;;;;;;15.88;12.15;;;24.70;48.80;;;;;;6159274;28;82991;-58
2022/11/01 06:43:57;;;;;;;19.92;11.00;;;24.70;48.90;;;;;;6173091;28;83551;-55
2022/11/01 06:46:58;;;;;;;15.77;11.07;;;24.70;49.40;;;;;;6169814;28;84333;-53
2022/11/01 06:49:58;;;;;;;20.73;10.95;;;24.70;49.40;;;;;;6169881;28;86176;-55
2022/11/01 06:52:59;;;;;;;17.25;11.27;;;24.70;49.80;;;;;;6172035;28;83199;-60
2022/11/01 06:55:59;;;;;;;12.20;9.43;;;24.70;49.70;;;;;;6166601;28;89565;-63
2022/11/01 06:59:00;;;;;;;13.32;9.60;;;24.70;49.90;;;;;;6172085;28;83079;-62
2022/11/01 07:02:00;;;;;;;21.30;10.82;;;24.70;49.90;;;;;;6176389;28;83924;-60
2022/11/01 07:05:01;;;;;;;16.52;10.48;;;24.70;50.10;;;;;;6186958;28;83316;-62
2022/11/01 07:08:02;;;;;;;13.10;9.40;;;24.70;50.40;;;;;;6191673;28;86872;-63
2022/11/01 07:11:02;;;;;;;17.55;9.70;;;24.70;50.50;;;;;;6180971;28;81847;-61
2022/11/01 07:14:03;;;;;;;16.33;9.52;;;24.70;50.50;;;;;;6171578;28;80624;-60
2022/11/01 07:17:03;;;;;;;12.30;8.98;;;24.70;50.50;;;;;;6178685;28;80286;-60
2022/11/01 07:20:04;;;;;;;18.15;9.10;;;24.80;50.50;;;;;;6165327;28;83851;-61
2022/11/01 07:23:04;;;;;;;14.68;8.52;;;24.80;50.40;;;;;;6162849;28;85218;-60
2022/11/01 07:26:05;;;;;;;11.00;8.20;;;24.80;50.40;;;;;;6181485;28;80432;-61
2022/11/01 07:29:05;;;;;;;12.68;8.13;;;24.80;50.40;;;;;;6203961;28;83484;-56
2022/11/01 07:32:06;;;;;;;17.35;9.07;;;24.80;50.60;;;;;;6196127;28;81828;-57
2022/11/01 07:35:06;;;;;;;11.57;8.50;;;24.80;50.60;;;;;;6178594;28;85567;-58
2022/11/01 07:38:07;;;;;;;13.07;8.70;;;24.80;50.60;;;;;;6182054;28;80739;-56
2022/11/01 07:41:08;;;;;;;13.77;9.05;;;24.80;50.80;;;;;;6200116;28;80620;-58
2022/11/01 07:44:08;;;;;;;19.05;8.60;;;24.80;50.90;;;;;;6204997;28;80327;-57
2022/11/01 07:47:09;;;;;;;16.73;9.45;;;24.80;51.30;;;;;;6200909;28;81118;-57
2022/11/01 07:50:09;;;;;;;14.98;8.68;;;24.80;51.10;;;;;;6187494;28;80470;-60
2022/11/01 07:53:10;;;;;;;12.35;8.40;;;24.80;51.10;;;;;;6166549;28;80873;-58
2022/11/01 07:56:10;;;;;;;17.10;8.80;;;24.80;51.20;;;;;;6163986;28;82382;-63
2022/11/01 07:59:11;;;;;;;14.45;9.55;;;24.80;51.10;;;;;;6158943;28;81628;-63
2022/11/01 08:02:11;;;;;;;13.95;9.50;;;24.80;50.90;;;;;;6157962;28;80699;-63
2022/11/01 08:05:12;;;;;;;12.38;9.15;;;24.80;50.60;;;;;;6141376;28;86070;-67
2022/11/01 08:08:12;;;;;;;19.08;9.88;;;24.80;50.60;;;;;;6158884;28;82152;-68
2022/11/01 08:11:13;;;;;;;15.85;9.52;;;24.80;50.70;;;;;;6155692;28;80780;-67
2022/11/01 08:14:14;;;;;;;12.95;9.63;;;24.80;50.70;;;;;;6158826;28;82133;-70
2022/11/01 08:17:14;;;;;;;15.95;9.60;;;24.80;50.90;;;;;;6162097;28;81543;-66
2022/11/01 08:20:15;;;;;;;18.75;9.70;;;24.80;50.80;;;;;;6164157;28;80727;-66
2022/11/01 08:23:15;;;;;;;12.13;9.77;;;24.80;50.90;;;;;;6161818;28;81065;-68
2022/11/01 08:26:16;;;;;;;17.42;9.57;;;24.90;50.90;;;;;;6162761;28;81912;-67
2022/11/01 08:29:16;;;;;;;14.85;10.52;;;24.90;50.90;;;;;;6168460;28;80746;-71
2022/11/01 08:32:17;;;;;;;13.45;9.73;;;24.90;50.90;;;;;;6168572;28;82871;-69
2022/11/01 08:35:17;;;;;;;14.35;9.55;;;24.90;50.80;;;;;;6169272;28;81868;-68
2022/11/01 08:38:18;;;;;;;14.18;9.55;;;24.90;50.80;;;;;;6170589;28;80335;-68
2022/11/01 08:41:18;;;;;;;21.20;11.95;;;24.90;51.00;;;;;;6184314;28;80830;-63
2022/11/01 08:44:19;;;;;;;22.08;12.70;;;24.80;50.40;;;;;;6175937;28;83158;-68
2022/11/01 08:47:19;;;;;;;17.58;12.63;;;24.70;50.10;;;;;;6168700;28;82813;-63
2022/11/01 08:50:20;;;;;;;21.45;14.65;;;24.60;50.00;;;;;;6168664;28;87541;-61
2022/11/01 08:53:20;;;;;;;27.08;14.70;;;24.60;50.10;;;;;;6164246;28;83576;-63
2022/11/01 08:56:23;;;;;;;28.27;16.05;;;24.50;50.20;;;;;;6168419;28;86376;-65
2022/11/01 08:59:23;;;;;;;23.73;15.73;;;24.50;50.30;;;;;;6175236;28;83045;-69
2022/11/01 09:02:24;;;;;;;28.10;17.27;;;24.40;50.10;;;;;;6199384;28;83343;-73
2022/11/01 09:05:24;;;;;;;25.70;16.10;;;24.40;50.10;;;;;;6180509;28;84417;-65
2022/11/01 09:08:25;;;;;;;28.27;17.20;;;24.30;50.30;;;;;;6174967;28;86840;-73
2022/11/01 09:11:26;;;;;;;28.92;17.00;;;24.30;50.30;;;;;;6169900;28;84802;-74
2022/11/01 09:14:26;;;;;;;25.90;16.80;;;24.20;50.10;;;;;;6181984;28;85976;-72
2022/11/01 09:17:27;;;;;;;27.25;17.30;;;24.10;50.40;;;;;;6192995;28;83344;-66
2022/11/01 09:20:27;;;;;;;26.63;16.45;;;24.10;50.60;;;;;;6165984;28;89274;-67
2022/11/01 09:23:28;;;;;;;26.77;16.98;;;24.10;50.80;;;;;;6152270;28;83604;-65
2022/11/01 09:26:28;;;;;;;26.73;16.88;;;24.10;51.00;;;;;;6181908;28;84166;-64
2022/11/01 09:29:29;;;;;;;28.65;17.90;;;24.10;51.20;;;;;;6183524;28;87983;-66
2022/11/01 09:32:29;;;;;;;26.85;17.33;;;24.10;51.50;;;;;;6167933;28;82993;-68
2022/11/01 09:35:30;;;;;;;27.98;17.30;;;24.20;51.80;;;;;;6159693;28;83825;-62
2022/11/01 09:38:30;;;;;;;26.35;17.27;;;24.20;52.20;;;;;;6164328;28;87138;-62
2022/11/01 09:41:31;;;;;;;26.90;17.38;;;24.30;52.60;;;;;;6165262;28;84043;-60
2022/11/01 09:44:31;;;;;;;30.75;18.60;;;24.20;53.00;;;;;;6174510;28;84988;-60
2022/11/01 09:47:32;;;;;;;27.08;17.55;;;24.30;53.30;;;;;;6163603;28;83623;-60
2022/11/01 09:50:33;;;;;;;26.23;17.15;;;24.30;53.50;;;;;;6176382;28;83601;-60
2022/11/01 09:53:33;;;;;;;29.58;18.52;;;24.30;54.40;;;;;;6191305;28;86740;-61
2022/11/01 09:56:34;;;;;;;29.55;19.38;;;24.30;54.20;;;;;;6183858;28;84230;-63
2022/11/01 09:59:34;;;;;;;27.08;18.83;;;24.20;55.10;;;;;;6195328;28;90822;-62
2022/11/01 10:02:35;;;;;;;24.88;18.15;;;24.20;54.80;;;;;;6171642;28;84166;-65
2022/11/01 10:05:35;;;;;;;32.25;18.13;;;24.10;54.90;;;;;;6170338;28;84514;-61
2022/11/01 10:08:36;;;;;;;26.90;17.02;;;24.10;54.50;;;;;;6175344;28;83174;-61
2022/11/01 10:11:37;;;;;;;24.48;17.05;;;24.10;54.10;;;;;;6171969;28;83770;-65
2022/11/01 10:14:37;;;;;;;26.05;16.10;;;24.10;54.00;;;;;;6182702;28;85966;-70
2022/11/01 10:17:38;;;;;;;27.75;17.17;;;24.00;53.40;;;;;;6184768;28;83242;-74
2022/11/01 10:20:39;;;;;;;23.50;15.77;;;24.00;53.30;;;;;;6172604;28;82983;-72
2022/11/01 10:23:40;;;;;;;21.67;15.15;;;24.00;53.00;;;;;;6178321;28;83282;-76
2022/11/01 10:26:44;;;;;;;22.42;15.27;;;24.00;53.00;;;;;;6198740;28;83913;-73
2022/11/01 10:29:44;;;;;;;18.23;13.82;;;24.10;52.80;;;;;;6174073;28;83163;-75
2022/11/01 10:32:45;;;;;;;20.42;13.85;;;24.00;52.60;;;;;;6171018;28;83081;-70
2022/11/01 10:35:45;;;;;;;19.60;13.27;;;24.00;52.50;;;;;;6184281;28;83302;-70
2022/11/01 10:38:47;;;;;;;19.35;12.68;;;24.20;52.70;;;;;;6180736;28;84589;-74
2022/11/01 10:41:47;;;;;;;16.83;12.05;;;24.40;53.10;;;;;;6167217;28;82990;-75
2022/11/01 10:44:53;;;;;;;21.25;13.68;;;24.60;52.30;;;;;;6164230;28;83566;-69
2022/11/01 10:47:54;;;;;;;24.88;14.65;;;24.70;51.90;;;;;;6150752;28;84788;-74
2022/11/01 10:50:54;;;;;;;23.45;13.52;;;24.70;51.40;;;;;;6160293;28;86102;-65
2022/11/01 10:53:55;;;;;;;18.77;13.88;;;24.80;51.40;;;;;;6175858;28;83049;-63
2022/11/01 10:56:55;;;;;;;18.45;13.90;;;24.80;50.80;;;;;;6172331;28;82997;-62
2022/11/01 10:59:56;;;;;;;24.63;15.23;;;24.90;50.60;;;;;;6178206;28;83809;-61
2022/11/01 11:02:57;;;;;;;20.98;15.57;;;25.00;50.30;;;;;;6183107;28;83487;-62
2022/11/01 11:05:58;;;;;;;21.05;14.93;;;24.60;50.80;;;;;;6184411;28;83206;-64
2022/11/01 11:08:58;;;;;;;28.80;16.58;;;24.50;50.70;;;;;;6175321;28;83809;-64
2022/11/01 11:11:59;;;;;;;28.73;17.75;;;24.10;50.70;;;;;;6192139;28;90584;-63
2022/11/01 11:14:59;;;;;;;24.00;18.08;;;22.60;53.60;;;;;;6176933;28;84115;-63
2022/11/01 11:18:00;;;;;;;26.77;16.88;;;22.50;54.40;;;;;;6174383;28;82850;-66
2022/11/01 11:21:00;;;;;;;23.65;17.23;;;22.20;55.10;;;;;;6189379;28;84839;-63
2022/11/01 11:24:02;;;;;;;28.40;18.42;;;22.30;54.60;;;;;;6193968;28;83602;-61
2022/11/01 11:27:02;;;;;;;21.10;16.60;;;22.10;54.90;;;;;;6190459;28;83278;-67
2022/11/01 11:30:04;;;;;;;22.98;15.98;;;22.20;55.00;;;;;;6167664;28;83527;-64
2022/11/01 11:33:04;;;;;;;24.35;18.15;;;22.40;54.30;;;;;;6175604;28;83251;-65
2022/11/01 11:36:05;;;;;;;23.15;16.17;;;22.40;53.70;;;;;;6174698;28;84247;-66
2022/11/01 11:39:05;;;;;;;21.92;15.50;;;22.60;53.70;;;;;;6176730;28;84392;-67
2022/11/01 11:42:06;;;;;;;23.48;16.90;;;23.10;52.90;;;;;;6163741;28;83220;-64
2022/11/01 11:45:06;;;;;;;25.88;18.38;;;23.10;52.80;;;;;;6174331;28;83276;-73
2022/11/01 11:48:07;;;;;;;27.17;17.88;;;22.90;53.00;;;;;;6173866;28;82867;-63
2022/11/01 11:51:07;;;;;;;25.67;17.35;;;22.90;53.00;;;;;;6171157;28;83533;-60
2022/11/01 11:54:08;;;;;;;23.65;17.10;;;23.10;53.10;;;;;;6191325;28;83089;-68
2022/11/01 11:57:10;;;;;;;27.40;17.40;;;23.30;52.70;;;;;;6176586;28;83472;-66
2022/11/01 12:00:10;;;;;;;23.77;15.07;;;23.50;52.50;;;;;;6183413;28;82879;-69
2022/11/01 12:03:16;;;;;;;18.60;13.93;;;23.80;52.10;;;;;;6172442;28;82867;-60
2022/11/01 12:06:16;;;;;;;20.08;13.07;;;24.00;51.70;;;;;;6184704;28;83985;-63
2022/11/01 12:09:17;;;;;;;28.35;15.20;;;24.10;51.40;;;;;;6173545;28;82924;-63
2022/11/01 12:12:17;;;;;;;20.80;14.63;;;24.10;51.30;;;;;;6177686;28;83408;-62
2022/11/01 12:15:18;;;;;;;24.33;15.93;;;24.10;51.00;;;;;;6176983;28;83748;-62
2022/11/01 12:18:19;;;;;;;24.73;16.33;;;23.80;51.60;;;;;;6174955;28;83324;-60
2022/11/01 12:21:19;;;;;;;22.52;15.70;;;24.00;51.40;;;;;;6174561;28;87732;-64
2022/11/01 12:24:20;;;;;;;19.08;14.38;;;24.10;51.60;;;;;;6170850;28;87827;-66
2022/11/01 12:27:20;;;;;;;20.80;13.95;;;24.20;51.40;;;;;;6175039;28;82834;-63
2022/11/01 12:30:21;;;;;;;23.80;16.90;;;24.40;51.40;;;;;;6167482;28;84694;-64
2022/11/01 12:33:21;;;;;;;24.80;17.40;;;24.30;51.00;;;;;;6175719;28;83502;-63
2022/11/01 12:36:22;;;;;;;24.88;15.80;;;24.30;51.10;;;;;;6157637;28;83476;-68
2022/11/01 12:39:22;;;;;;;20.88;15.38;;;24.30;51.30;;;;;;6161751;28;83385;-67
2022/11/01 12:42:23;;;;;;;23.00;15.55;;;24.30;51.20;;;;;;6178044;28;90499;-66
2022/11/01 12:45:23;;;;;;;20.67;15.13;;;24.30;51.10;;;;;;6180969;28;86242;-63
2022/11/01 12:48:24;;;;;;;19.10;14.25;;;24.30;51.20;;;;;;6182395;28;88880;-66
2022/11/01 12:51:25;;;;;;;25.13;14.30;;;24.50;51.40;;;;;;6165893;28;83272;-65
2022/11/01 12:54:26;;;;;;;28.15;15.63;;;24.80;50.70;;;;;;6179429;28;83562;-70
2022/11/01 12:57:26;;;;;;;30.10;17.35;;;24.70;49.90;;;;;;6178367;28;83312;-69
2022/11/01 13:00:27;;;;;;;20.60;15.73;;;24.10;50.90;;;;;;6167035;28;83216;-68
2022/11/01 13:03:28;;;;;;;25.17;16.08;;;24.40;50.70;;;;;;6172283;28;84012;-75
2022/11/01 13:06:28;;;;;;;20.25;15.13;;;24.60;50.60;;;;;;6188686;28;83645;-69
2022/11/01 13:09:29;;;;;;;20.67;13.85;;;24.60;50.50;;;;;;6196103;28;84544;-64
2022/11/01 13:12:29;;;;;;;26.13;15.95;;;24.50;50.90;;;;;;6176894;28;82902;-74
2022/11/01 13:15:30;;;;;;;22.85;15.75;;;24.60;50.70;;;;;;6166946;28;84014;-69
2022/11/01 13:18:32;;;;;;;22.80;14.23;;;24.70;50.70;;;;;;6164387;28;83326;-64
2022/11/01 13:21:33;;;;;;;24.30;16.95;;;24.80;51.00;;;;;;6164504;28;83086;-67
2022/11/01 13:24:33;;;;;;;23.95;15.48;;;24.60;50.50;;;;;;6153989;28;83557;-66
2022/11/01 13:27:34;;;;;;;21.45;15.90;;;24.20;51.40;;;;;;6171249;28;89063;-64
2022/11/01 13:30:34;;;;;;;20.08;14.25;;;23.90;52.20;;;;;;6178717;28;84349;-64
2022/11/01 13:33:35;;;;;;;22.67;14.50;;;24.10;52.20;;;;;;6176830;28;83853;-62
2022/11/01 13:36:35;;;;;;;24.25;15.25;;;24.30;51.90;;;;;;6177338;28;84461;-71
2022/11/01 13:39:36;;;;;;;21.85;14.25;;;24.40;51.80;;;;;;6179657;28;86463;-69
2022/11/01 13:42:37;;;;;;;20.13;13.05;;;24.10;52.20;;;;;;6179263;28;87207;-69
2022/11/01 13:45:37;;;;;;;18.45;13.23;;;24.30;52.30;;;;;;6180036;28;84045;-69
2022/11/01 13:48:38;;;;;;;19.48;12.63;;;24.20;52.10;;;;;;6188262;28;83784;-67
2022/11/01 13:51:38;;;;;;;16.23;11.93;;;24.20;52.00;;;;;;6189668;28;82980;-67
2022/11/01 13:54:39;;;;;;;17.08;13.18;;;24.20;52.20;;;;;;6189472;28;85380;-63
2022/11/01 13:57:39;;;;;;;19.95;13.32;;;23.90;52.20;;;;;;6198775;28;83918;-59
2022/11/01 14:00:40;;;;;;;20.15;12.18;;;24.10;52.90;;;;;;6195692;28;83942;-64
2022/11/01 14:03:41;;;;;;;17.23;11.68;;;24.30;51.90;;;;;;6198591;28;84833;-65
2022/11/01 14:06:41;;;;;;;16.15;11.55;;;24.70;51.00;;;;;;6197124;28;86065;-63
2022/11/01 14:09:42;;;;;;;23.58;11.30;;;24.80;50.70;;;;;;6195039;28;83149;-63
2022/11/01 14:12:42;;;;;;;20.23;11.15;;;24.90;50.30;;;;;;6197054;28;86372;-60
2022/11/01 14:15:43;;;;;;;17.98;10.20;;;24.90;50.10;;;;;;6194073;28;88954;-60
2022/11/01 14:18:43;;;;;;;17.23;10.25;;;24.70;50.60;;;;;;6196301;28;84255;-60
2022/11/01 14:21:44;;;;;;;17.70;9.68;;;24.90;50.40;;;;;;6192494;28;88003;-60
2022/11/01 14:24:44;;;;;;;20.38;10.65;;;25.00;50.70;;;;;;6184112;28;83061;-60
2022/11/01 14:27:45;;;;;;;17.50;9.93;;;25.10;50.60;;;;;;6181864;28;86672;-60
2022/11/01 14:30:45;;;;;;;24.10;9.40;;;25.00;50.70;;;;;;6185379;28;82290;-76
2022/11/01 14:33:50;;;;;;;14.60;8.52;;;24.90;50.90;;;;;;6162515;28;81352;-76
2022/11/01 14:36:50;;;;;;;13.65;8.60;;;24.90;51.00;;;;;;6175674;28;80989;-75
2022/11/01 14:39:51;;;;;;;11.07;7.53;;;24.80;50.90;;;;;;6172583;28;80981;-68
2022/11/01 14:42:52;;;;;;;13.05;8.07;;;24.70;50.90;;;;;;6194687;28;80937;-73
2022/11/01 14:45:52;;;;;;;20.33;7.78;;;24.70;51.10;;;;;;6175516;28;80894;-71
2022/11/01 14:48:53;;;;;;;16.38;7.60;;;24.70;50.90;;;;;;6174560;28;83112;-72
2022/11/01 14:51:53;;;;;;;16.50;8.35;;;24.70;50.90;;;;;;6173787;28;80329;-68
2022/11/01 14:54:54;;;;;;;19.20;8.15;;;24.60;51.00;;;;;;6182568;28;84543;-68
2022/11/01 14:57:54;;;;;;;18.90;8.15;;;24.40;51.20;;;;;;6169150;28;80503;-68
2022/11/01 15:00:55;;;;;;;12.50;7.15;;;24.40;51.10;;;;;;6170772;28;81466;-66
2022/11/01 15:03:55;;;;;;;11.45;6.03;;;24.30;50.60;;;;;;6177471;28;80548;-70
2022/11/01 15:06:56;;;;;;;11.55;7.32;;;24.20;50.60;;;;;;6167955;28;81494;-61
2022/11/01 15:09:57;;;;;;;11.38;6.40;;;24.20;51.40;;;;;;6167456;28;80493;-61
2022/11/01 15:12:57;;;;;;;9.93;6.38;;;24.20;50.70;;;;;;6168294;28;81242;-61
2022/11/01 15:15:58;;;;;;;13.98;6.75;;;24.10;50.80;;;;;;6167134;28;82008;-61
2022/11/01 15:18:58;;;;;;;12.88;6.43;;;24.10;50.70;;;;;;6169193;28;80973;-60
2022/11/01 15:22:02;;;;;;;10.05;6.07;;;24.00;50.70;;;;;;6168221;28;80662;-60
2022/11/01 15:25:03;;;;;;;14.15;6.88;;;23.90;50.70;;;;;;6183448;28;80795;-62